Time;durP1;ratioP1;P1;durP2;ratioP2;P2;SDS_P1;SDS_P2;PMS_P1;PMS_P2;Temp;Humidity;BMP_temperature;BMP_pressure;BME280_temperature;BME280_humidity;BME280_pressure;Samples;Min_cycle;Max_cycle;Signal;HPM_P1;HPM_P2
2023/07/12 00:01:08;;;;;;;;;1.75;1.75;;;;;;;;5082946;27;45706;-73
2023/07/12 00:03:34;;;;;;;;;3.25;3.25;;;;;;;;5070895;27;45521;-74
2023/07/12 00:05:59;;;;;;;;;3.25;3.25;;;;;;;;5072818;27;45377;-74
2023/07/12 00:08:25;;;;;;;;;2.00;2.00;;;;;;;;5072101;27;45877;-73
2023/07/12 00:10:52;;;;;;;;;4.25;2.50;;;;;;;;5073293;27;45411;-73
2023/07/12 00:13:18;;;;;;;;;3.00;3.00;;;;;;;;5092503;27;45269;-74
2023/07/12 00:15:43;;;;;;;;;4.75;3.00;;;;;;;;5093012;27;45706;-74
2023/07/12 00:18:14;;;;;;;;;1.25;1.25;;;;;;;;5058943;27;46948;-74
2023/07/12 00:20:40;;;;;;;;;3.00;1.75;;;;;;;;5064655;27;46346;-74
2023/07/12 00:23:05;;;;;;;;;3.50;2.00;;;;;;;;5060774;27;45436;-74
2023/07/12 00:25:31;;;;;;;;;3.50;2.25;;;;;;;;5065880;28;45414;-74
2023/07/12 00:27:57;;;;;;;;;2.00;2.00;;;;;;;;5057011;27;46646;-73
2023/07/12 00:30:24;;;;;;;;;1.75;1.75;;;;;;;;5091757;27;45371;-76
2023/07/12 00:32:53;;;;;;;;;3.00;2.50;;;;;;;;5065864;27;45960;-74
2023/07/12 00:35:23;;;;;;;;;4.50;4.00;;;;;;;;5080792;27;45735;-73
2023/07/12 00:37:53;;;;;;;;;2.25;2.25;;;;;;;;5093764;27;45344;-72
2023/07/12 00:40:22;;;;;;;;;2.67;2.67;;;;;;;;5085507;27;46104;-72
2023/07/12 00:42:49;;;;;;;;;3.00;3.00;;;;;;;;5096398;27;45669;-73
2023/07/12 00:45:15;;;;;;;;;3.00;3.00;;;;;;;;5095447;27;45493;-72
2023/07/12 00:47:40;;;;;;;;;6.00;4.00;;;;;;;;5091028;27;45717;-74
2023/07/12 00:50:32;;;;;;;;;2.67;2.67;;;;;;;;5093963;27;45522;-74
2023/07/12 00:52:57;;;;;;;;;2.00;2.00;;;;;;;;5071541;27;45340;-74
2023/07/12 00:55:41;;;;;;;;;3.00;3.00;;;;;;;;5091602;27;45509;-74
2023/07/12 00:58:06;;;;;;;;;2.00;2.00;;;;;;;;5067721;27;45786;-74
2023/07/12 01:00:32;;;;;;;;;11.00;9.33;;;;;;;;5092935;27;47418;-73
2023/07/12 01:02:59;;;;;;;;;3.50;3.00;;;;;;;;5086791;27;45783;-73
2023/07/12 01:05:24;;;;;;;;;7.00;5.00;;;;;;;;5095112;27;45751;-74
2023/07/12 01:07:50;;;;;;;;;4.00;4.00;;;;;;;;5094966;27;45688;-73
2023/07/12 01:10:15;;;;;;;;;5.33;4.00;;;;;;;;5093515;27;46744;-74
2023/07/12 01:12:40;;;;;;;;;22.00;21.33;;;;;;;;5088938;27;45495;-73
2023/07/12 01:15:08;;;;;;;;;6.00;4.67;;;;;;;;5087746;27;45411;-74
2023/07/12 01:17:34;;;;;;;;;4.67;4.00;;;;;;;;5081801;27;45637;-73
2023/07/12 01:19:59;;;;;;;;;7.00;4.67;;;;;;;;5043629;28;48208;-74
2023/07/12 01:22:24;;;;;;;;;4.00;3.00;;;;;;;;5068230;28;45353;-73
2023/07/12 01:24:49;;;;;;;;;2.00;2.00;;;;;;;;5075267;28;45687;-73
2023/07/12 01:27:17;;;;;;;;;2.00;2.00;;;;;;;;5047602;28;45647;-73
2023/07/12 01:29:42;;;;;;;;;3.50;1.25;;;;;;;;5074627;28;45697;-73
2023/07/12 01:32:08;;;;;;;;;5.00;5.00;;;;;;;;5074400;28;45724;-73
2023/07/12 01:34:33;;;;;;;;;4.00;4.00;;;;;;;;5073484;28;45556;-72
2023/07/12 01:36:58;;;;;;;;;8.67;7.33;;;;;;;;5073025;28;45888;-73
2023/07/12 01:39:24;;;;;;;;;3.33;3.33;;;;;;;;5071036;28;47011;-73
2023/07/12 01:41:49;;;;;;;;;6.00;5.33;;;;;;;;5073120;28;45529;-72
2023/07/12 01:44:15;;;;;;;;;3.75;3.00;;;;;;;;5055471;28;45639;-74
2023/07/12 01:46:40;;;;;;;;;4.50;2.50;;;;;;;;5071793;28;45393;-74
2023/07/12 01:49:05;;;;;;;;;3.00;3.00;;;;;;;;5054021;28;47952;-73
2023/07/12 01:51:30;;;;;;;;;2.00;2.00;;;;;;;;5048650;28;45966;-73
2023/07/12 01:53:56;;;;;;;;;1.00;1.00;;;;;;;;5050360;28;45769;-73
2023/07/12 01:56:21;;;;;;;;;2.75;1.00;;;;;;;;5061441;28;45394;-73
2023/07/12 01:58:46;;;;;;;;;1.00;1.00;;;;;;;;5073962;28;45422;-74
2023/07/12 02:01:12;;;;;;;;;2.25;2.25;;;;;;;;5074261;28;45672;-74
2023/07/12 02:03:37;;;;;;;;;1.00;1.00;;;;;;;;5074870;28;45893;-73
2023/07/12 02:06:02;;;;;;;;;1.00;1.00;;;;;;;;5074279;28;45546;-73
2023/07/12 02:08:28;;;;;;;;;3.00;1.00;;;;;;;;5045380;28;46560;-73
2023/07/12 02:10:53;;;;;;;;;3.00;3.00;;;;;;;;5071064;28;45838;-75
2023/07/12 02:13:19;;;;;;;;;2.75;2.75;;;;;;;;5074957;28;45487;-74
2023/07/12 02:15:45;;;;;;;;;4.25;2.50;;;;;;;;5040814;28;45599;-74
2023/07/12 02:18:11;;;;;;;;;0.25;0.00;;;;;;;;5072684;27;45902;-75
2023/07/12 02:20:36;;;;;;;;;1.00;0.00;;;;;;;;5071905;28;45400;-73
2023/07/12 02:23:02;;;;;;;;;0.00;0.00;;;;;;;;5073353;28;45423;-74
2023/07/12 02:25:27;;;;;;;;;1.00;1.00;;;;;;;;5067810;28;45328;-73
2023/07/12 02:27:52;;;;;;;;;2.00;0.50;;;;;;;;5070606;28;46508;-74
2023/07/12 02:30:19;;;;;;;;;0.00;0.00;;;;;;;;5056019;28;45753;-74
2023/07/12 02:32:45;;;;;;;;;1.75;0.00;;;;;;;;5036048;28;45774;-73
2023/07/12 02:35:11;;;;;;;;;1.00;0.00;;;;;;;;5055248;28;45445;-74
2023/07/12 02:37:36;;;;;;;;;1.00;1.00;;;;;;;;5063519;28;46666;-73
2023/07/12 02:40:06;;;;;;;;;0.00;0.00;;;;;;;;5064463;28;45594;-73
2023/07/12 02:42:31;;;;;;;;;1.50;0.75;;;;;;;;5052408;28;45752;-72
2023/07/12 02:44:56;;;;;;;;;0.50;0.50;;;;;;;;5052737;28;45368;-74
2023/07/12 02:47:22;;;;;;;;;0.75;0.00;;;;;;;;5060459;28;45570;-73
2023/07/12 02:49:47;;;;;;;;;0.00;0.00;;;;;;;;5070160;28;45517;-73
2023/07/12 02:52:12;;;;;;;;;0.00;0.00;;;;;;;;5066346;28;45481;-67
2023/07/12 02:54:38;;;;;;;;;1.00;0.75;;;;;;;;5052206;28;46012;-67
2023/07/12 02:57:03;;;;;;;;;2.00;1.00;;;;;;;;5064635;28;46268;-69
2023/07/12 02:59:29;;;;;;;;;1.25;1.25;;;;;;;;5071273;28;45453;-68
2023/07/12 03:01:54;;;;;;;;;0.00;0.00;;;;;;;;5055300;28;45444;-68
2023/07/12 03:04:20;;;;;;;;;1.00;1.00;;;;;;;;5062113;28;45555;-67
2023/07/12 03:06:46;;;;;;;;;1.00;1.00;;;;;;;;5070703;28;45704;-73
2023/07/12 03:09:12;;;;;;;;;2.50;0.75;;;;;;;;5068202;28;45434;-72
2023/07/12 03:11:37;;;;;;;;;1.00;1.00;;;;;;;;5071871;28;45622;-73
2023/07/12 03:14:06;;;;;;;;;1.50;0.75;;;;;;;;5073596;28;45427;-73
2023/07/12 03:16:31;;;;;;;;;2.00;1.00;;;;;;;;5073923;28;45748;-68
2023/07/12 03:18:58;;;;;;;;;1.00;1.00;;;;;;;;5068066;27;45666;-67
2023/07/12 03:21:23;;;;;;;;;0.25;0.25;;;;;;;;5071866;28;46206;-68
2023/07/12 03:23:48;;;;;;;;;3.00;1.00;;;;;;;;5073938;28;45930;-72
2023/07/12 03:26:14;;;;;;;;;2.00;1.50;;;;;;;;5073255;28;45727;-73
2023/07/12 03:28:39;;;;;;;;;2.50;2.00;;;;;;;;5056534;28;45556;-72
2023/07/12 03:31:09;;;;;;;;;3.75;1.75;;;;;;;;5072541;28;45401;-72
2023/07/12 03:33:35;;;;;;;;;0.00;0.00;;;;;;;;5072932;28;45861;-75
2023/07/12 03:36:01;;;;;;;;;4.50;1.00;;;;;;;;5071610;28;45854;-74
2023/07/12 03:38:28;;;;;;;;;3.25;1.00;;;;;;;;5070551;28;45884;-74
2023/07/12 03:40:54;;;;;;;;;1.75;1.75;;;;;;;;5072087;28;45608;-73
2023/07/12 03:43:19;;;;;;;;;2.00;2.00;;;;;;;;5072524;28;46429;-73
2023/07/12 03:45:44;;;;;;;;;2.00;1.00;;;;;;;;5041827;28;47295;-74
2023/07/12 03:48:10;;;;;;;;;2.67;2.67;;;;;;;;5056817;28;45727;-73
2023/07/12 03:50:39;;;;;;;;;4.00;2.25;;;;;;;;5072578;28;45486;-74
2023/07/12 03:53:05;;;;;;;;;1.25;1.25;;;;;;;;5058089;28;45426;-73
2023/07/12 03:55:30;;;;;;;;;3.00;2.00;;;;;;;;5068456;28;45376;-68
2023/07/12 03:57:55;;;;;;;;;2.75;1.50;;;;;;;;5040529;28;46296;-68
2023/07/12 04:00:20;;;;;;;;;1.25;1.00;;;;;;;;5072268;28;45670;-67
2023/07/12 04:02:46;;;;;;;;;1.00;1.00;;;;;;;;5051568;28;45542;-68
2023/07/12 04:05:11;;;;;;;;;2.25;1.25;;;;;;;;5066995;28;46025;-67
2023/07/12 04:07:36;;;;;;;;;2.00;1.75;;;;;;;;5057122;28;45726;-68
2023/07/12 04:10:01;;;;;;;;;1.00;1.00;;;;;;;;5061619;28;45668;-68
2023/07/12 04:12:26;;;;;;;;;4.67;3.00;;;;;;;;5067579;28;45779;-73
2023/07/12 04:14:52;;;;;;;;;4.25;1.50;;;;;;;;5038681;28;47528;-72
2023/07/12 04:17:17;;;;;;;;;2.25;2.25;;;;;;;;5078923;27;45345;-73
2023/07/12 04:19:43;;;;;;;;;2.00;2.00;;;;;;;;5074946;27;45392;-73
2023/07/12 04:22:08;;;;;;;;;1.00;1.00;;;;;;;;5061018;27;46140;-69
2023/07/12 04:24:33;;;;;;;;;1.50;1.50;;;;;;;;5076721;27;45719;-74
2023/07/12 04:26:59;;;;;;;;;4.00;2.00;;;;;;;;5075231;27;45420;-74
2023/07/12 04:29:24;;;;;;;;;3.25;2.25;;;;;;;;5056995;28;45436;-73
2023/07/12 04:31:50;;;;;;;;;1.00;1.00;;;;;;;;5068778;27;45502;-70
2023/07/12 04:34:15;;;;;;;;;5.50;2.00;;;;;;;;5091711;27;45769;-71
2023/07/12 04:36:41;;;;;;;;;1.00;1.00;;;;;;;;5093670;27;45874;-72
2023/07/12 04:39:08;;;;;;;;;3.00;1.00;;;;;;;;5094579;27;45731;-67
2023/07/12 04:41:33;;;;;;;;;1.00;1.00;;;;;;;;5092673;27;45768;-67
2023/07/12 04:43:58;;;;;;;;;2.75;1.75;;;;;;;;5069268;27;45333;-69
2023/07/12 04:46:23;;;;;;;;;4.00;2.33;;;;;;;;5078021;27;45456;-70
2023/07/12 04:48:49;;;;;;;;;2.00;2.00;;;;;;;;5080750;27;45924;-69
2023/07/12 04:51:14;;;;;;;;;4.25;3.00;;;;;;;;5096621;27;45612;-69
2023/07/12 04:53:39;;;;;;;;;2.00;2.00;;;;;;;;5095095;27;46515;-70
2023/07/12 04:56:04;;;;;;;;;2.75;2.75;;;;;;;;5089298;27;46463;-69
2023/07/12 04:58:30;;;;;;;;;4.75;1.25;;;;;;;;5067210;28;45702;-75
2023/07/12 05:00:55;;;;;;;;;1.25;1.25;;;;;;;;5090948;27;45628;-79
2023/07/12 05:03:20;;;;;;;;;4.25;2.25;;;;;;;;5076383;27;45386;-74
2023/07/12 05:05:45;;;;;;;;;2.75;1.25;;;;;;;;5092583;27;45588;-75
2023/07/12 05:08:11;;;;;;;;;4.00;2.75;;;;;;;;5093871;27;45583;-71
2023/07/12 05:10:37;;;;;;;;;2.75;2.00;;;;;;;;5090369;27;45640;-73
2023/07/12 05:13:03;;;;;;;;;1.00;1.00;;;;;;;;5094314;27;46149;-71
2023/07/12 05:15:28;;;;;;;;;2.50;1.00;;;;;;;;5092704;27;45513;-73
2023/07/12 05:17:53;;;;;;;;;1.25;1.25;;;;;;;;5093219;27;45462;-73
2023/07/12 05:20:19;;;;;;;;;2.00;2.00;;;;;;;;5095402;27;45522;-73
2023/07/12 05:22:47;;;;;;;;;2.25;2.25;;;;;;;;5094639;27;45726;-71
2023/07/12 05:25:12;;;;;;;;;1.75;1.00;;;;;;;;5076151;27;45524;-72
2023/07/12 05:27:37;;;;;;;;;2.00;1.00;;;;;;;;5086932;27;45377;-71
2023/07/12 05:30:03;;;;;;;;;1.75;1.75;;;;;;;;5060019;27;46150;-70
2023/07/12 05:32:28;;;;;;;;;2.25;1.50;;;;;;;;5076039;27;46215;-70
2023/07/12 05:34:53;;;;;;;;;1.00;1.00;;;;;;;;5083710;27;45965;-69
2023/07/12 05:37:19;;;;;;;;;2.50;1.00;;;;;;;;5074889;27;45651;-70
2023/07/12 05:39:44;;;;;;;;;2.00;0.25;;;;;;;;5073646;27;45310;-70
2023/07/12 05:42:09;;;;;;;;;0.50;0.50;;;;;;;;5068893;27;47406;-72
2023/07/12 05:44:35;;;;;;;;;1.25;1.00;;;;;;;;5073934;27;45338;-72
2023/07/12 05:47:00;;;;;;;;;0.25;0.25;;;;;;;;5054441;27;45405;-71
2023/07/12 05:49:26;;;;;;;;;1.00;1.00;;;;;;;;5034383;27;45734;-68
2023/07/12 05:51:51;;;;;;;;;1.00;1.00;;;;;;;;5051273;27;46561;-70
2023/07/12 05:54:17;;;;;;;;;2.00;1.00;;;;;;;;5057647;27;45433;-73
2023/07/12 05:56:42;;;;;;;;;3.00;0.75;;;;;;;;5063463;27;45880;-73
2023/07/12 05:59:07;;;;;;;;;2.00;1.00;;;;;;;;5055778;27;45471;-73
2023/07/12 06:01:32;;;;;;;;;0.25;0.25;;;;;;;;5041519;27;47612;-72
2023/07/12 06:03:58;;;;;;;;;1.00;1.00;;;;;;;;5057869;27;45778;-73
2023/07/12 06:06:23;;;;;;;;;1.50;0.00;;;;;;;;5055201;27;46025;-74
2023/07/12 06:08:48;;;;;;;;;2.00;0.75;;;;;;;;5064845;27;45964;-71
2023/07/12 06:11:14;;;;;;;;;1.00;1.00;;;;;;;;5076648;27;46330;-71
2023/07/12 06:13:39;;;;;;;;;1.75;1.25;;;;;;;;5065175;27;45914;-73
2023/07/12 06:16:04;;;;;;;;;1.50;0.00;;;;;;;;5034838;27;45973;-73
2023/07/12 06:18:30;;;;;;;;;1.00;1.00;;;;;;;;5044117;28;46503;-72
2023/07/12 06:20:56;;;;;;;;;1.00;1.00;;;;;;;;5042419;27;47829;-72
2023/07/12 06:23:22;;;;;;;;;1.75;1.25;;;;;;;;5064636;27;45722;-69
2023/07/12 06:25:47;;;;;;;;;4.25;1.25;;;;;;;;5061186;27;45412;-71
2023/07/12 06:28:12;;;;;;;;;3.00;3.00;;;;;;;;5065425;27;45596;-73
2023/07/12 06:30:38;;;;;;;;;3.00;1.00;;;;;;;;5074131;27;45586;-74
2023/07/12 06:33:03;;;;;;;;;1.25;1.25;;;;;;;;5071910;27;45655;-73
2023/07/12 06:35:30;;;;;;;;;0.50;0.50;;;;;;;;5080213;27;46137;-72
2023/07/12 06:37:55;;;;;;;;;0.75;0.00;;;;;;;;5081537;27;45672;-72
2023/07/12 06:40:21;;;;;;;;;0.75;0.75;;;;;;;;5067768;27;45405;-73
2023/07/12 06:42:46;;;;;;;;;4.00;1.00;;;;;;;;5067465;27;45562;-74
2023/07/12 06:45:11;;;;;;;;;1.50;1.50;;;;;;;;5072558;27;45585;-73
2023/07/12 06:47:36;;;;;;;;;3.50;0.75;;;;;;;;5070536;27;45709;-74
2023/07/12 06:50:02;;;;;;;;;2.00;0.50;;;;;;;;5076642;27;45348;-73
2023/07/12 06:52:27;;;;;;;;;0.25;0.25;;;;;;;;5072746;27;45905;-71
2023/07/12 06:54:53;;;;;;;;;1.25;0.00;;;;;;;;5079702;27;45595;-74
2023/07/12 06:57:19;;;;;;;;;2.00;1.00;;;;;;;;5076562;27;45686;-74
2023/07/12 06:59:44;;;;;;;;;1.75;1.00;;;;;;;;5053678;27;48227;-72
2023/07/12 07:02:10;;;;;;;;;0.50;0.50;;;;;;;;5078508;27;45492;-72
2023/07/12 07:04:35;;;;;;;;;0.00;0.00;;;;;;;;5080953;27;45455;-73
2023/07/12 07:07:00;;;;;;;;;1.25;1.00;;;;;;;;5065094;27;46580;-73
2023/07/12 07:09:26;;;;;;;;;0.75;0.75;;;;;;;;5083550;27;45597;-74
2023/07/12 07:11:51;;;;;;;;;0.50;0.50;;;;;;;;5076060;27;45490;-74
2023/07/12 07:14:16;;;;;;;;;0.00;0.00;;;;;;;;5084559;27;45390;-74
2023/07/12 07:16:42;;;;;;;;;1.75;1.75;;;;;;;;5086173;27;45380;-73
2023/07/12 07:19:07;;;;;;;;;1.00;1.00;;;;;;;;5078524;27;45962;-74
2023/07/12 07:21:41;;;;;;;;;1.00;1.00;;;;;;;;5087783;27;45946;-74
2023/07/12 07:24:07;;;;;;;;;1.50;0.50;;;;;;;;5062853;27;45413;-75
2023/07/12 07:26:32;;;;;;;;;0.00;0.00;;;;;;;;5089321;27;45461;-74
2023/07/12 07:28:57;;;;;;;;;2.00;2.00;;;;;;;;5084015;27;45466;-73
2023/07/12 07:31:23;;;;;;;;;1.25;0.00;;;;;;;;5094479;27;45411;-74
2023/07/12 07:33:48;;;;;;;;;0.00;0.00;;;;;;;;5094392;27;45797;-72
2023/07/12 07:36:14;;;;;;;;;2.00;0.00;;;;;;;;5091388;27;45474;-72
2023/07/12 07:38:40;;;;;;;;;0.00;0.00;;;;;;;;5092940;27;45562;-72
2023/07/12 07:41:09;;;;;;;;;0.00;0.00;;;;;;;;5092290;27;45783;-71
2023/07/12 07:43:35;;;;;;;;;3.50;1.00;;;;;;;;5088455;27;45376;-73
2023/07/12 07:46:01;;;;;;;;;1.00;1.00;;;;;;;;5087848;27;45696;-74
2023/07/12 07:48:26;;;;;;;;;0.00;0.00;;;;;;;;5090416;27;45565;-75
2023/07/12 07:50:51;;;;;;;;;1.00;0.00;;;;;;;;5089475;27;45786;-73
2023/07/12 07:53:17;;;;;;;;;2.50;1.00;;;;;;;;5065479;27;45592;-74
2023/07/12 07:55:43;;;;;;;;;2.00;0.50;;;;;;;;5082711;27;45401;-75
2023/07/12 07:58:09;;;;;;;;;1.50;1.00;;;;;;;;5054068;27;48045;-73
2023/07/12 08:00:36;;;;;;;;;0.00;0.00;;;;;;;;5058564;27;45560;-74
2023/07/12 08:03:01;;;;;;;;;1.00;0.00;;;;;;;;5073165;27;45369;-74
2023/07/12 08:05:27;;;;;;;;;1.00;1.00;;;;;;;;5085704;27;45849;-75
2023/07/12 08:07:52;;;;;;;;;1.25;0.00;;;;;;;;5086010;27;45825;-73
2023/07/12 08:10:18;;;;;;;;;1.00;0.00;;;;;;;;5081904;27;45305;-73
2023/07/12 08:12:43;;;;;;;;;0.25;0.25;;;;;;;;5087301;27;45478;-74
2023/07/12 08:15:09;;;;;;;;;2.00;1.00;;;;;;;;5092267;27;45811;-74
2023/07/12 08:17:35;;;;;;;;;2.00;1.00;;;;;;;;5069858;27;45791;-74
2023/07/12 08:20:01;;;;;;;;;2.00;1.00;;;;;;;;5051886;27;45987;-74
2023/07/12 08:22:26;;;;;;;;;2.00;2.00;;;;;;;;5074019;27;45822;-73
2023/07/12 08:24:52;;;;;;;;;0.75;0.00;;;;;;;;5076187;27;45671;-71
2023/07/12 08:27:17;;;;;;;;;0.00;0.00;;;;;;;;5074180;27;45359;-76
2023/07/12 08:29:43;;;;;;;;;0.25;0.25;;;;;;;;5070821;27;45490;-74
2023/07/12 08:32:08;;;;;;;;;0.25;0.25;;;;;;;;5078953;27;45907;-73
2023/07/12 08:34:34;;;;;;;;;0.00;0.00;;;;;;;;5071295;27;45831;-72
2023/07/12 08:37:00;;;;;;;;;0.00;0.00;;;;;;;;5075683;27;46225;-72
2023/07/12 08:39:25;;;;;;;;;0.00;0.00;;;;;;;;5072478;27;45425;-72
2023/07/12 08:41:53;;;;;;;;;2.50;0.50;;;;;;;;5065374;28;45579;-73
2023/07/12 08:44:19;;;;;;;;;1.00;1.00;;;;;;;;5081887;27;45731;-70
2023/07/12 08:46:55;;;;;;;;;1.00;0.50;;;;;;;;5081319;27;46061;-72
2023/07/12 08:49:21;;;;;;;;;0.25;0.25;;;;;;;;5086343;27;45479;-72
2023/07/12 08:51:47;;;;;;;;;0.00;0.00;;;;;;;;5064292;27;45663;-70
2023/07/12 08:54:33;;;;;;;;;0.00;0.00;;;;;;;;5087278;27;46244;-71
2023/07/12 08:57:10;;;;;;;;;1.00;0.00;;;;;;;;5075154;27;45561;-72
2023/07/12 08:59:35;;;;;;;;;0.25;0.25;;;;;;;;5082629;27;45709;-70
2023/07/12 09:02:03;;;;;;;;;0.00;0.00;;;;;;;;5077611;27;45744;-70
2023/07/12 09:04:31;;;;;;;;;2.00;1.00;;;;;;;;5069081;27;45637;-68
2023/07/12 09:06:59;;;;;;;;;1.00;1.00;;;;;;;;5081415;27;45469;-70
2023/07/12 09:09:26;;;;;;;;;2.00;1.00;;;;;;;;5075044;27;45931;-70
2023/07/12 09:11:51;;;;;;;;;0.00;0.00;;;;;;;;5079119;27;45401;-70
2023/07/12 09:14:18;;;;;;;;;1.00;1.00;;;;;;;;5067141;27;45691;-69
2023/07/12 09:16:48;;;;;;;;;1.00;1.00;;;;;;;;5079544;27;45601;-70
2023/07/12 09:19:19;;;;;;;;;3.75;1.00;;;;;;;;5088967;27;45649;-69
2023/07/12 09:21:49;;;;;;;;;2.00;0.00;;;;;;;;5075024;27;45645;-70
2023/07/12 09:24:19;;;;;;;;;1.00;1.00;;;;;;;;5082562;27;45426;-69
2023/07/12 09:26:45;;;;;;;;;0.25;0.00;;;;;;;;5087141;27;46277;-70
2023/07/12 09:29:14;;;;;;;;;0.75;0.75;;;;;;;;5085028;27;45451;-70
2023/07/12 09:31:41;;;;;;;;;0.00;0.00;;;;;;;;5086174;27;45637;-70
2023/07/12 09:34:07;;;;;;;;;1.25;0.50;;;;;;;;5069723;27;45862;-70
2023/07/12 09:36:38;;;;;;;;;1.00;1.00;;;;;;;;5066663;28;46144;-70
2023/07/12 09:39:07;;;;;;;;;2.00;0.25;;;;;;;;5086553;27;45368;-69
2023/07/12 09:41:32;;;;;;;;;3.00;0.75;;;;;;;;5091543;27;45823;-69
2023/07/12 09:43:59;;;;;;;;;2.50;1.00;;;;;;;;5094033;27;45420;-70
2023/07/12 09:46:24;;;;;;;;;0.50;0.50;;;;;;;;5066410;27;46136;-70
2023/07/12 09:48:53;;;;;;;;;0.00;0.00;;;;;;;;5081437;27;45935;-70
2023/07/12 09:51:21;;;;;;;;;1.00;1.00;;;;;;;;5093371;27;45466;-70
2023/07/12 09:53:50;;;;;;;;;0.75;0.00;;;;;;;;5094984;27;45945;-73
2023/07/12 09:56:16;;;;;;;;;0.75;0.00;;;;;;;;5088336;27;45392;-72
2023/07/12 09:58:53;;;;;;;;;0.00;0.00;;;;;;;;5069622;27;45763;-71
2023/07/12 10:01:43;;;;;;;;;1.00;1.00;;;;;;;;5079904;27;45706;-69
2023/07/12 10:04:28;;;;;;;;;1.75;0.25;;;;;;;;5076459;27;45448;-69
2023/07/12 10:06:55;;;;;;;;;1.50;0.00;;;;;;;;5077943;27;45593;-71
2023/07/12 10:09:31;;;;;;;;;0.75;0.75;;;;;;;;5068203;27;45398;-70
2023/07/12 10:12:17;;;;;;;;;0.25;0.25;;;;;;;;5082846;27;45750;-69
2023/07/12 10:14:43;;;;;;;;;0.25;0.25;;;;;;;;5090766;27;45511;-72
2023/07/12 10:17:18;;;;;;;;;0.00;0.00;;;;;;;;5093125;27;46227;-68
2023/07/12 10:19:46;;;;;;;;;0.00;0.00;;;;;;;;5074743;27;45829;-70
2023/07/12 10:22:15;;;;;;;;;1.00;0.00;;;;;;;;5065451;28;45388;-70
2023/07/12 10:24:42;;;;;;;;;0.00;0.00;;;;;;;;5061865;27;46429;-72
2023/07/12 10:27:17;;;;;;;;;1.00;1.00;;;;;;;;5060338;27;46127;-70
2023/07/12 10:29:47;;;;;;;;;2.75;1.75;;;;;;;;5090114;27;46058;-70
2023/07/12 10:32:21;;;;;;;;;2.50;1.00;;;;;;;;5050317;28;45773;-71
2023/07/12 10:34:51;;;;;;;;;0.75;0.75;;;;;;;;5073028;27;45615;-70
2023/07/12 10:37:26;;;;;;;;;1.00;1.00;;;;;;;;5070059;27;45491;-70
2023/07/12 10:39:51;;;;;;;;;0.25;0.00;;;;;;;;5072424;27;45938;-71
2023/07/12 10:42:25;;;;;;;;;1.00;1.00;;;;;;;;5073953;27;45423;-72
2023/07/12 10:44:52;;;;;;;;;1.00;1.00;;;;;;;;5071819;27;45828;-71
2023/07/12 10:47:18;;;;;;;;;0.00;0.00;;;;;;;;5071164;28;45876;-70
2023/07/12 10:49:52;;;;;;;;;1.50;1.00;;;;;;;;5081768;27;45932;-70
2023/07/12 10:52:26;;;;;;;;;0.00;0.00;;;;;;;;5073819;27;45443;-69
2023/07/12 10:55:04;;;;;;;;;2.00;0.00;;;;;;;;5080139;27;45599;-71
2023/07/12 10:57:41;;;;;;;;;1.00;1.00;;;;;;;;5067875;27;45477;-72
2023/07/12 11:00:12;;;;;;;;;0.00;0.00;;;;;;;;5070962;27;45712;-71
2023/07/12 11:02:45;;;;;;;;;0.00;0.00;;;;;;;;5092579;27;45474;-69
2023/07/12 11:05:29;;;;;;;;;0.00;0.00;;;;;;;;5093057;27;45470;-70
2023/07/12 11:07:54;;;;;;;;;1.00;1.00;;;;;;;;5079321;27;46447;-72
2023/07/12 11:10:23;;;;;;;;;0.25;0.25;;;;;;;;5094117;27;45341;-70
2023/07/12 11:12:53;;;;;;;;;0.00;0.00;;;;;;;;5057657;28;45482;-70
2023/07/12 11:15:26;;;;;;;;;1.00;1.00;;;;;;;;5078981;27;45767;-70
2023/07/12 11:18:18;;;;;;;;;2.75;1.00;;;;;;;;5091463;27;46018;-71
2023/07/12 11:20:59;;;;;;;;;1.00;1.00;;;;;;;;5079380;27;45468;-69
2023/07/12 11:23:26;;;;;;;;;1.75;1.00;;;;;;;;5090828;27;45438;-71
2023/07/12 11:25:57;;;;;;;;;3.25;0.50;;;;;;;;5093285;27;45544;-69
2023/07/12 11:28:23;;;;;;;;;0.25;0.25;;;;;;;;5087299;27;45751;-68
2023/07/12 11:31:08;;;;;;;;;3.75;1.50;;;;;;;;5093964;27;45617;-69
2023/07/12 11:33:35;;;;;;;;;1.25;1.00;;;;;;;;5077198;27;45445;-68
2023/07/12 11:36:06;;;;;;;;;0.50;0.00;;;;;;;;5092975;27;46005;-71
2023/07/12 11:38:33;;;;;;;;;1.75;0.75;;;;;;;;5060195;27;48238;-70
2023/07/12 11:41:03;;;;;;;;;1.75;1.50;;;;;;;;5075993;27;45819;-69
2023/07/12 11:43:32;;;;;;;;;1.50;0.50;;;;;;;;5069448;27;45469;-67
2023/07/12 11:45:57;;;;;;;;;2.75;1.00;;;;;;;;5083231;27;45501;-70
2023/07/12 11:48:23;;;;;;;;;0.00;0.00;;;;;;;;5073489;27;45832;-69
2023/07/12 11:50:50;;;;;;;;;1.00;1.00;;;;;;;;5067699;27;45698;-68
2023/07/12 11:53:15;;;;;;;;;1.00;1.00;;;;;;;;5084304;27;46024;-69
2023/07/12 11:55:41;;;;;;;;;0.25;0.25;;;;;;;;5085066;27;45399;-68
2023/07/12 11:58:27;;;;;;;;;1.00;0.50;;;;;;;;5092750;27;45376;-70
2023/07/12 12:00:54;;;;;;;;;0.50;0.00;;;;;;;;5085061;27;45596;-68
2023/07/12 12:03:19;;;;;;;;;1.00;1.00;;;;;;;;5092260;27;45808;-69
2023/07/12 12:05:44;;;;;;;;;0.00;0.00;;;;;;;;5091005;27;45505;-70
2023/07/12 12:08:15;;;;;;;;;1.25;1.00;;;;;;;;5066321;28;47165;-70
2023/07/12 12:10:41;;;;;;;;;1.50;0.25;;;;;;;;5091224;27;45530;-68
2023/07/12 12:13:24;;;;;;;;;2.00;2.00;;;;;;;;5088984;27;45831;-68
2023/07/12 12:15:51;;;;;;;;;2.00;2.00;;;;;;;;5092195;27;45672;-69
2023/07/12 12:18:18;;;;;;;;;0.00;0.00;;;;;;;;5092224;27;45561;-68
2023/07/12 12:20:55;;;;;;;;;0.00;0.00;;;;;;;;5073470;27;45341;-70
2023/07/12 12:23:26;;;;;;;;;0.00;0.00;;;;;;;;5080570;27;45752;-69
2023/07/12 12:25:52;;;;;;;;;1.00;1.00;;;;;;;;5084913;27;46214;-69
2023/07/12 12:28:24;;;;;;;;;1.00;1.00;;;;;;;;5087609;27;46267;-68
2023/07/12 12:31:16;;;;;;;;;0.00;0.00;;;;;;;;5063469;27;45449;-69
2023/07/12 12:33:46;;;;;;;;;0.25;0.25;;;;;;;;5072702;27;45971;-69
2023/07/12 12:36:25;;;;;;;;;1.25;1.00;;;;;;;;5074236;27;45440;-72
2023/07/12 12:39:03;;;;;;;;;0.75;0.00;;;;;;;;5082184;27;46296;-70
2023/07/12 12:41:36;;;;;;;;;0.25;0.25;;;;;;;;5056496;27;45350;-69
2023/07/12 12:44:07;;;;;;;;;2.50;1.00;;;;;;;;5084352;27;45407;-69
2023/07/12 12:46:32;;;;;;;;;0.00;0.00;;;;;;;;5083104;27;45820;-68
2023/07/12 12:48:57;;;;;;;;;2.00;1.50;;;;;;;;5090962;27;45353;-70
2023/07/12 12:51:23;;;;;;;;;1.00;1.00;;;;;;;;5081503;27;45444;-69
2023/07/12 12:53:48;;;;;;;;;1.00;1.00;;;;;;;;5065649;28;45534;-68
2023/07/12 12:56:14;;;;;;;;;0.00;0.00;;;;;;;;5085330;27;45583;-68
2023/07/12 12:58:40;;;;;;;;;0.50;0.50;;;;;;;;5082015;27;45681;-67
2023/07/12 13:01:07;;;;;;;;;0.00;0.00;;;;;;;;5077232;27;45832;-68
2023/07/12 13:03:32;;;;;;;;;0.00;0.00;;;;;;;;5061217;28;45788;-69
2023/07/12 13:05:57;;;;;;;;;2.50;0.25;;;;;;;;5090237;27;45513;-67
2023/07/12 13:08:23;;;;;;;;;1.50;0.00;;;;;;;;5093774;27;46960;-68
2023/07/12 13:10:48;;;;;;;;;0.50;0.50;;;;;;;;5094622;27;45947;-69
2023/07/12 13:13:15;;;;;;;;;0.00;0.00;;;;;;;;5087042;27;46009;-69
2023/07/12 13:15:40;;;;;;;;;0.25;0.25;;;;;;;;5081447;27;45834;-70
2023/07/12 13:18:09;;;;;;;;;1.75;1.00;;;;;;;;5063061;27;45412;-70
2023/07/12 13:20:34;;;;;;;;;0.00;0.00;;;;;;;;5089559;27;45521;-69
2023/07/12 13:23:00;;;;;;;;;0.25;0.25;;;;;;;;5077477;27;45501;-68
2023/07/12 13:25:25;;;;;;;;;1.00;1.00;;;;;;;;5091979;27;45369;-67
2023/07/12 13:27:54;;;;;;;;;2.00;1.00;;;;;;;;5094067;27;46497;-69
2023/07/12 13:30:19;;;;;;;;;0.00;0.00;;;;;;;;5087721;27;45828;-70
2023/07/12 13:32:45;;;;;;;;;0.00;0.00;;;;;;;;5094007;27;45668;-69
2023/07/12 13:35:15;;;;;;;;;2.00;1.00;;;;;;;;5069280;28;45668;-69
2023/07/12 13:37:41;;;;;;;;;1.00;1.00;;;;;;;;5081053;27;45414;-67
2023/07/12 13:40:11;;;;;;;;;1.00;0.50;;;;;;;;5093416;27;45328;-69
2023/07/12 13:42:37;;;;;;;;;0.75;0.75;;;;;;;;5095217;27;45815;-67
2023/07/12 13:45:02;;;;;;;;;0.00;0.00;;;;;;;;5092911;27;45805;-68
2023/07/12 13:47:28;;;;;;;;;1.00;1.00;;;;;;;;5072801;27;46472;-69
2023/07/12 13:49:54;;;;;;;;;1.00;1.00;;;;;;;;5082248;27;45488;-67
2023/07/12 13:52:21;;;;;;;;;0.50;0.50;;;;;;;;5091766;27;45408;-67
2023/07/12 13:54:47;;;;;;;;;2.75;2.00;;;;;;;;5077387;27;45815;-68
2023/07/12 13:57:13;;;;;;;;;2.50;1.50;;;;;;;;5077187;27;45428;-69
2023/07/12 13:59:39;;;;;;;;;2.50;0.25;;;;;;;;5089797;27;45677;-69
2023/07/12 14:02:17;;;;;;;;;2.00;0.00;;;;;;;;5084586;27;45530;-69
2023/07/12 14:04:42;;;;;;;;;15.50;12.25;;;;;;;;5070878;27;45786;-69
2023/07/12 14:07:11;;;;;;;;;0.75;0.75;;;;;;;;5089499;27;46172;-68
2023/07/12 14:09:37;;;;;;;;;1.00;1.00;;;;;;;;5092945;27;45513;-68
2023/07/12 14:12:03;;;;;;;;;4.00;2.00;;;;;;;;5080364;27;45504;-68
2023/07/12 14:14:28;;;;;;;;;1.00;1.00;;;;;;;;5093373;27;45418;-69
2023/07/12 14:16:53;;;;;;;;;1.00;1.00;;;;;;;;5065294;27;45741;-67
2023/07/12 14:19:19;;;;;;;;;2.50;1.00;;;;;;;;5054800;27;45819;-66
2023/07/12 14:21:44;;;;;;;;;17.00;16.67;;;;;;;;5085664;27;45731;-68
2023/07/12 14:24:12;;;;;;;;;2.75;2.75;;;;;;;;5077880;27;45581;-69
2023/07/12 14:26:37;;;;;;;;;16.00;14.00;;;;;;;;5070641;28;47508;-67
2023/07/12 14:29:03;;;;;;;;;6.25;6.25;;;;;;;;5076661;27;45424;-68
2023/07/12 14:31:30;;;;;;;;;1.75;1.75;;;;;;;;5090206;27;45900;-70
2023/07/12 14:33:55;;;;;;;;;2.25;2.00;;;;;;;;5091557;27;46405;-66
2023/07/12 14:36:21;;;;;;;;;15.75;12.75;;;;;;;;5074174;27;46505;-68
2023/07/12 14:38:47;;;;;;;;;12.50;12.50;;;;;;;;5093341;27;45737;-69
2023/07/12 14:41:25;;;;;;;;;1.75;1.00;;;;;;;;5092626;27;45384;-67
2023/07/12 14:43:50;;;;;;;;;1.25;1.25;;;;;;;;5080611;27;45338;-69